createdAt,value
2017-01-01T00:00:07.576Z,3.7
2017-01-01T00:00:17.569Z,3.7
2017-01-01T00:00:27.565Z,3.7
2017-01-01T00:00:37.556Z,3.7
2017-01-01T00:00:47.551Z,3.7
2017-01-01T00:00:57.541Z,3.7
2017-01-01T00:01:07.536Z,3.7
2017-01-01T00:01:17.529Z,3.7
2017-01-01T00:01:27.523Z,3.7
2017-01-01T00:01:37.651Z,3.7
2017-01-01T00:01:47.510Z,3.7
2017-01-01T00:01:57.505Z,3.7
2017-01-01T00:02:07.498Z,3.7
2017-01-01T00:02:17.492Z,3.7
2017-01-01T00:02:27.484Z,3.7
2017-01-01T00:02:37.506Z,3.6
2017-01-01T00:02:47.474Z,3.7
2017-01-01T00:02:57.462Z,3.7
2017-01-01T00:03:07.457Z,3.7
2017-01-01T00:03:17.451Z,3.7
2017-01-01T00:03:27.860Z,3.7
2017-01-01T00:03:37.566Z,3.7
2017-01-01T00:03:47.432Z,3.6
2017-01-01T00:03:57.425Z,3.6
2017-01-01T00:04:07.837Z,3.6
2017-01-01T00:04:17.411Z,3.6
2017-01-01T00:04:27.536Z,3.6
2017-01-01T00:04:37.396Z,3.6
2017-01-01T00:04:47.388Z,3.6
2017-01-01T00:04:57.381Z,3.6
2017-01-01T00:05:07.402Z,3.6
2017-01-01T00:05:17.370Z,3.7
2017-01-01T00:05:27.364Z,3.7
2017-01-01T00:05:37.352Z,3.7
2017-01-01T00:05:47.347Z,3.7
2017-01-01T00:05:57.343Z,3.7
2017-01-01T00:06:07.338Z,3.7
2017-01-01T00:06:17.330Z,3.7
2017-01-01T00:06:27.320Z,3.7
2017-01-01T00:06:37.316Z,3.6
2017-01-01T00:06:47.306Z,3.7
2017-01-01T00:06:57.303Z,3.6
2017-01-01T00:07:07.298Z,3.6
2017-01-01T00:07:17.292Z,3.6
2017-01-01T00:07:27.284Z,3.6
2017-01-01T00:07:37.275Z,3.6
2017-01-01T00:07:47.266Z,3.6
2017-01-01T00:07:57.263Z,3.6
2017-01-01T00:08:07.253Z,3.6
2017-01-01T00:08:17.667Z,3.6
2017-01-01T00:08:27.243Z,3.6
2017-01-01T00:08:37.649Z,3.6
2017-01-01T00:08:47.226Z,3.6
2017-01-01T00:08:57.219Z,3.6
2017-01-01T00:09:07.216Z,3.6
2017-01-01T00:09:17.206Z,3.5
2017-01-01T00:09:27.200Z,3.6
2017-01-01T00:09:37.194Z,3.6
2017-01-01T00:09:47.188Z,3.6
2017-01-01T00:09:57.181Z,3.6
2017-01-01T00:10:07.174Z,3.6
2017-01-01T00:10:17.166Z,3.6
2017-01-01T00:10:27.160Z,3.6
2017-01-01T00:10:37.158Z,3.6
2017-01-01T00:10:47.143Z,3.5
2017-01-01T00:10:57.139Z,3.6
2017-01-01T00:11:07.131Z,3.6
2017-01-01T00:11:17.129Z,3.6
2017-01-01T00:11:27.123Z,3.6
2017-01-01T00:11:37.113Z,3.6
2017-01-01T00:11:47.106Z,3.6
2017-01-01T00:11:57.100Z,3.5
2017-01-01T00:12:07.123Z,3.5
2017-01-01T00:12:17.088Z,3.5
2017-01-01T00:12:27.081Z,3.5
2017-01-01T00:12:37.075Z,3.6
2017-01-01T00:12:47.066Z,3.6
2017-01-01T00:12:57.056Z,3.6
2017-01-01T00:13:07.051Z,3.6
2017-01-01T00:13:17.045Z,3.6
2017-01-01T00:13:27.042Z,3.6
2017-01-01T00:13:37.032Z,3.6
2017-01-01T00:13:47.028Z,3.5
2017-01-01T00:13:57.017Z,3.6
2017-01-01T00:14:07.014Z,3.6
2017-01-01T00:14:17.008Z,3.6
2017-01-01T00:14:26.997Z,3.6
2017-01-01T00:14:36.994Z,3.6
2017-01-01T00:14:46.989Z,3.6
2017-01-01T00:14:56.988Z,3.5
2017-01-01T00:15:06.974Z,3.6
2017-01-01T00:15:16.983Z,3.5
2017-01-01T00:15:26.962Z,3.5
2017-01-01T00:15:36.953Z,3.6
2017-01-01T00:15:47.079Z,3.6
2017-01-01T00:15:56.940Z,3.6
2017-01-01T00:16:06.958Z,3.6
2017-01-01T00:16:16.925Z,3.6
2017-01-01T00:16:26.921Z,3.6
2017-01-01T00:16:36.911Z,3.6
2017-01-01T00:16:46.908Z,3.6
2017-01-01T00:16:56.895Z,3.5
2017-01-01T00:17:06.892Z,3.6
2017-01-01T00:17:16.888Z,3.6
2017-01-01T00:17:26.879Z,3.6
2017-01-01T00:17:36.873Z,3.5
2017-01-01T00:17:46.866Z,3.5
2017-01-01T00:17:56.859Z,3.5
2017-01-01T00:18:06.849Z,3.5
2017-01-01T00:18:16.980Z,3.5
2017-01-01T00:18:26.842Z,3.5
2017-01-01T00:18:36.841Z,3.5
2017-01-01T00:18:46.825Z,3.5
2017-01-01T00:18:56.819Z,3.5
2017-01-01T00:19:06.809Z,3.5
2017-01-01T00:19:16.832Z,3.5
2017-01-01T00:19:26.801Z,3.5
2017-01-01T00:19:36.924Z,3.5
2017-01-01T00:19:46.785Z,3.5
2017-01-01T00:19:56.780Z,3.5
2017-01-01T00:20:06.769Z,3.5
2017-01-01T00:20:16.765Z,3.5
2017-01-01T00:20:26.760Z,3.5
2017-01-01T00:20:36.752Z,3.5
2017-01-01T00:20:46.746Z,3.5
2017-01-01T00:20:56.733Z,3.5
2017-01-01T00:21:06.726Z,3.5
2017-01-01T00:21:16.726Z,3.5
2017-01-01T00:21:26.720Z,3.5
2017-01-01T00:21:36.709Z,3.5
2017-01-01T00:21:46.833Z,3.5
2017-01-01T00:21:56.696Z,3.5
2017-01-01T00:22:06.685Z,3.5
2017-01-01T00:22:16.682Z,3.5
2017-01-01T00:22:26.673Z,3.5
2017-01-01T00:22:36.670Z,3.5
2017-01-01T00:22:46.668Z,3.5
2017-01-01T00:22:56.655Z,3.5
2017-01-01T00:23:06.646Z,3.5
2017-01-01T00:23:16.644Z,3.5
2017-01-01T00:23:26.634Z,3.5
2017-01-01T00:23:36.633Z,3.5
2017-01-01T00:23:46.628Z,3.5
2017-01-01T00:23:56.620Z,3.5
2017-01-01T00:24:06.606Z,3.5
2017-01-01T00:24:16.603Z,3.5
2017-01-01T00:24:26.597Z,3.5
2017-01-01T00:24:36.588Z,3.5
2017-01-01T00:24:46.582Z,3.5
2017-01-01T00:24:56.571Z,3.5
2017-01-01T00:25:06.567Z,3.5
2017-01-01T00:25:16.561Z,3.5
2017-01-01T00:25:26.690Z,3.5
2017-01-01T00:25:36.966Z,3.5
2017-01-01T00:25:46.543Z,3.5
2017-01-01T00:25:56.534Z,3.5
2017-01-01T00:26:06.531Z,3.5
2017-01-01T00:26:16.520Z,3.5
2017-01-01T00:26:26.516Z,3.5
2017-01-01T00:26:36.509Z,3.5
2017-01-01T00:26:46.503Z,3.5
2017-01-01T00:26:56.495Z,3.5
2017-01-01T00:27:06.483Z,3.5
2017-01-01T00:27:16.900Z,3.5
2017-01-01T00:27:26.473Z,3.5
2017-01-01T00:27:36.469Z,3.5
2017-01-01T00:27:46.465Z,3.5
2017-01-01T00:27:56.479Z,3.5
2017-01-01T00:28:06.449Z,3.5
2017-01-01T00:28:16.439Z,3.4
2017-01-01T00:28:26.435Z,3.4
2017-01-01T00:28:36.429Z,3.4
2017-01-01T00:28:46.441Z,3.4
2017-01-01T00:28:56.416Z,3.4
2017-01-01T00:29:06.406Z,3.4
2017-01-01T00:29:16.400Z,3.4
2017-01-01T00:29:26.395Z,3.4
2017-01-01T00:29:36.386Z,3.4
2017-01-01T00:29:46.382Z,3.4
2017-01-01T00:29:56.374Z,3.4
2017-01-01T00:30:06.366Z,3.4
2017-01-01T00:30:16.361Z,3.4
2017-01-01T00:30:26.374Z,3.4
2017-01-01T00:30:36.345Z,3.4
2017-01-01T00:30:46.342Z,3.5
2017-01-01T00:30:56.460Z,3.4
2017-01-01T00:31:06.461Z,3.5
2017-01-01T00:31:16.316Z,3.5
2017-01-01T00:31:26.308Z,3.4
2017-01-01T00:31:36.306Z,3.4
2017-01-01T00:31:46.301Z,3.4
2017-01-01T00:31:56.294Z,3.4
2017-01-01T00:32:06.313Z,3.4
2017-01-01T00:32:16.280Z,3.4
2017-01-01T00:32:26.273Z,3.4
2017-01-01T00:32:36.264Z,3.4
2017-01-01T00:32:46.259Z,3.4
2017-01-01T00:32:56.255Z,3.4
2017-01-01T00:33:06.242Z,3.4
2017-01-01T00:33:16.241Z,3.4
2017-01-01T00:33:26.368Z,3.4
2017-01-01T00:33:36.224Z,3.4
2017-01-01T00:33:46.220Z,3.4
2017-01-01T00:33:56.213Z,3.4
2017-01-01T00:34:06.205Z,3.4
2017-01-01T00:34:16.201Z,3.4
2017-01-01T00:34:26.194Z,3.4
2017-01-01T00:34:36.185Z,3.4
2017-01-01T00:34:46.179Z,3.3
2017-01-01T00:34:56.168Z,3.3
2017-01-01T00:35:06.169Z,3.3
2017-01-01T00:35:16.162Z,3.3
2017-01-01T00:35:26.147Z,3.3
2017-01-01T00:35:36.145Z,3.3
2017-01-01T00:35:46.140Z,3.3
2017-01-01T00:35:56.162Z,3.3
2017-01-01T00:36:06.121Z,3.3
2017-01-01T00:36:16.116Z,3.3
2017-01-01T00:36:26.112Z,3.4
2017-01-01T00:36:36.101Z,3.4
2017-01-01T00:36:46.095Z,3.4
2017-01-01T00:36:56.090Z,3.4
2017-01-01T00:37:06.083Z,3.4
2017-01-01T00:37:16.076Z,3.4
2017-01-01T00:37:26.070Z,3.4
2017-01-01T00:37:36.060Z,3.4
2017-01-01T00:37:46.058Z,3.4
2017-01-01T00:37:56.050Z,3.3
2017-01-01T00:38:06.041Z,3.3
2017-01-01T00:38:16.034Z,3.3
2017-01-01T00:38:26.027Z,3.3
2017-01-01T00:38:36.022Z,3.3
2017-01-01T00:38:46.016Z,3.3
2017-01-01T00:38:56.007Z,3.3
2017-01-01T00:39:06.006Z,3.4
2017-01-01T00:39:15.999Z,3.4
2017-01-01T00:39:25.986Z,3.3
2017-01-01T00:39:35.983Z,3.3
2017-01-01T00:39:45.974Z,3.3
2017-01-01T00:39:55.967Z,3.3
2017-01-01T00:40:05.962Z,3.3
2017-01-01T00:40:15.956Z,3.3
2017-01-01T00:40:25.973Z,3.3
2017-01-01T00:40:35.943Z,3.3
2017-01-01T00:40:45.935Z,3.3
2017-01-01T00:40:55.927Z,3.3
2017-01-01T00:41:05.924Z,3.3
2017-01-01T00:41:15.915Z,3.3
2017-01-01T00:41:25.909Z,3.3
2017-01-01T00:41:35.900Z,3.3
2017-01-01T00:41:45.894Z,3.3
2017-01-01T00:41:55.884Z,3.3
2017-01-01T00:42:05.885Z,3.3
2017-01-01T00:42:15.875Z,3.3
2017-01-01T00:42:25.866Z,3.3
2017-01-01T00:42:35.861Z,3.4
2017-01-01T00:42:45.994Z,3.4
2017-01-01T00:42:55.849Z,3.4
2017-01-01T00:43:05.840Z,3.4
2017-01-01T00:43:15.834Z,3.4
2017-01-01T00:43:25.824Z,3.4
2017-01-01T00:43:35.822Z,3.3
2017-01-01T00:43:45.813Z,3.4
2017-01-01T00:43:55.809Z,3.4
2017-01-01T00:44:05.802Z,3.4
2017-01-01T00:44:15.794Z,3.4
2017-01-01T00:44:25.788Z,3.4
2017-01-01T00:44:35.777Z,3.4
2017-01-01T00:44:45.772Z,3.3
2017-01-01T00:44:55.767Z,3.4
2017-01-01T00:45:05.756Z,3.4
2017-01-01T00:45:15.754Z,3.4
2017-01-01T00:45:25.748Z,3.4
2017-01-01T00:45:35.739Z,3.3
2017-01-01T00:45:45.734Z,3.3
2017-01-01T00:45:55.726Z,3.3
2017-01-01T00:46:05.718Z,3.3
2017-01-01T00:46:15.713Z,3.3
2017-01-01T00:46:25.706Z,3.3
2017-01-01T00:46:35.702Z,3.3
2017-01-01T00:46:45.690Z,3.3
2017-01-01T00:46:55.684Z,3.3
2017-01-01T00:47:05.679Z,3.3
2017-01-01T00:47:15.673Z,3.3
2017-01-01T00:47:25.664Z,3.3
2017-01-01T00:47:35.659Z,3.3
2017-01-01T00:47:45.650Z,3.3
2017-01-01T00:47:55.640Z,3.3
2017-01-01T00:48:05.641Z,3.3
2017-01-01T00:48:15.634Z,3.3
2017-01-01T00:48:25.620Z,3.3
2017-01-01T00:48:35.620Z,3.3
2017-01-01T00:48:45.608Z,3.3
2017-01-01T00:48:55.606Z,3.3
2017-01-01T00:49:05.598Z,3.3
2017-01-01T00:49:15.593Z,3.3
2017-01-01T00:49:25.590Z,3.3
2017-01-01T00:49:35.579Z,3.3
2017-01-01T00:49:45.570Z,3.3
2017-01-01T00:49:55.561Z,3.3
2017-01-01T00:50:05.555Z,3.3
2017-01-01T00:50:15.553Z,3.3
2017-01-01T00:50:25.547Z,3.3
2017-01-01T00:50:35.537Z,3.3
2017-01-01T00:50:45.531Z,3.3
2017-01-01T00:50:55.520Z,3.3
2017-01-01T00:51:05.557Z,3.3
2017-01-01T00:51:15.513Z,3.3
2017-01-01T00:51:25.504Z,3.3
2017-01-01T00:51:35.497Z,3.3
2017-01-01T00:51:45.488Z,3.3
2017-01-01T00:51:55.480Z,3.3
2017-01-01T00:52:05.478Z,3.3
2017-01-01T00:52:15.472Z,3.3
2017-01-01T00:52:25.459Z,3.3
2017-01-01T00:52:35.461Z,3.3
2017-01-01T00:52:45.447Z,3.3
2017-01-01T00:52:55.442Z,3.3
2017-01-01T00:53:05.437Z,3.2
2017-01-01T00:53:15.430Z,3.2
2017-01-01T00:53:25.427Z,3.3
2017-01-01T00:53:35.416Z,3.2
2017-01-01T00:53:45.408Z,3.2
2017-01-01T00:53:55.398Z,3.2
2017-01-01T00:54:05.393Z,3.2
2017-01-01T00:54:15.389Z,3.2
2017-01-01T00:54:25.382Z,3.2
2017-01-01T00:54:35.375Z,3.2
2017-01-01T00:54:45.370Z,3.2
2017-01-01T00:54:55.360Z,3.2
2017-01-01T00:55:05.771Z,3.2
2017-01-01T00:55:15.349Z,3.2
2017-01-01T00:55:25.338Z,3.2
2017-01-01T00:55:35.336Z,3.2
2017-01-01T00:55:45.331Z,3.2
2017-01-01T00:55:55.322Z,3.2
2017-01-01T00:56:05.314Z,3.2
2017-01-01T00:56:15.303Z,3.2
2017-01-01T00:56:25.302Z,3.2
2017-01-01T00:56:35.298Z,3.2
2017-01-01T00:56:45.289Z,3.2
2017-01-01T00:56:55.310Z,3.2
2017-01-01T00:57:05.281Z,3.2
2017-01-01T00:57:15.269Z,3.2
2017-01-01T00:57:25.264Z,3.2
2017-01-01T00:57:35.254Z,3.2
2017-01-01T00:57:45.244Z,3.2
2017-01-01T00:57:55.240Z,3.2
2017-01-01T00:58:05.238Z,3.2
2017-01-01T00:58:15.225Z,3.2
2017-01-01T00:58:25.216Z,3.2
2017-01-01T00:58:35.214Z,3.2
2017-01-01T00:58:45.207Z,3.2
2017-01-01T00:58:55.196Z,3.2
2017-01-01T00:59:05.190Z,3.2
2017-01-01T00:59:15.187Z,3.2
2017-01-01T00:59:25.180Z,3.2
2017-01-01T00:59:35.175Z,3.2
2017-01-01T00:59:45.164Z,3.2
2017-01-01T00:59:55.159Z,3.2
2017-01-01T01:00:05.151Z,3.2
2017-01-01T01:00:15.147Z,3.2
2017-01-01T01:00:25.138Z,3.2
2017-01-01T01:00:35.135Z,3.2
2017-01-01T01:00:45.126Z,3.2
2017-01-01T01:00:55.142Z,3.2
2017-01-01T01:01:05.112Z,3.2
2017-01-01T01:01:15.104Z,3.2
2017-01-01T01:01:25.101Z,3.2
2017-01-01T01:01:35.092Z,3.2
2017-01-01T01:01:45.082Z,3.2
2017-01-01T01:01:55.080Z,3.2
2017-01-01T01:02:05.073Z,3.2
2017-01-01T01:02:15.063Z,3.2
2017-01-01T01:02:25.192Z,3.2
2017-01-01T01:02:35.052Z,3.2
2017-01-01T01:02:45.046Z,3.2
2017-01-01T01:02:55.036Z,3.2
2017-01-01T01:03:05.029Z,3.2
2017-01-01T01:03:15.023Z,3.2
2017-01-01T01:03:25.017Z,3.2
2017-01-01T01:03:35.010Z,3.2
2017-01-01T01:03:45.001Z,3.1
2017-01-01T01:03:54.991Z,3.2
2017-01-01T01:04:04.990Z,3.2
2017-01-01T01:04:15.007Z,3.2
2017-01-01T01:04:24.979Z,3.2
2017-01-01T01:04:34.969Z,3.2
2017-01-01T01:04:44.965Z,3.2
2017-01-01T01:04:54.952Z,3.2
2017-01-01T01:05:04.952Z,3.2
2017-01-01T01:05:14.942Z,3.2
2017-01-01T01:05:24.936Z,3.2
2017-01-01T01:05:35.349Z,3.2
2017-01-01T01:05:44.919Z,3.2
2017-01-01T01:05:54.915Z,3.2
2017-01-01T01:06:04.912Z,3.2
2017-01-01T01:06:14.903Z,3.2
2017-01-01T01:06:24.897Z,3.2
2017-01-01T01:06:35.021Z,3.2
2017-01-01T01:06:44.883Z,3.2
2017-01-01T01:06:54.874Z,3.2
2017-01-01T01:07:04.867Z,3.2
2017-01-01T01:07:15.000Z,3.2
2017-01-01T01:07:24.853Z,3.1
2017-01-01T01:07:34.852Z,3.1
2017-01-01T01:07:44.841Z,3.1
2017-01-01T01:07:54.835Z,3.1
2017-01-01T01:08:04.825Z,3.1
2017-01-01T01:08:14.822Z,3.1
2017-01-01T01:08:24.814Z,3.1
2017-01-01T01:08:34.809Z,3.1
2017-01-01T01:08:44.797Z,3.1
2017-01-01T01:08:54.926Z,3.1
2017-01-01T01:09:04.789Z,3.1
2017-01-01T01:09:14.777Z,3.1
2017-01-01T01:09:24.774Z,3.1
2017-01-01T01:09:34.766Z,3.1
2017-01-01T01:09:44.792Z,3.1
2017-01-01T01:09:54.774Z,3.1
2017-01-01T01:10:04.745Z,3.1
2017-01-01T01:10:14.736Z,3.1
2017-01-01T01:10:24.735Z,3.1
2017-01-01T01:10:34.728Z,3.1
2017-01-01T01:10:44.722Z,3.1
2017-01-01T01:10:54.712Z,3.1
2017-01-01T01:11:04.705Z,3.1
2017-01-01T01:11:14.697Z,3.1
2017-01-01T01:11:24.692Z,3.1
2017-01-01T01:11:34.685Z,3.1
2017-01-01T01:11:44.674Z,3.1
2017-01-01T01:11:54.671Z,3.1
2017-01-01T01:12:04.661Z,3.1
2017-01-01T01:12:14.661Z,3.1
2017-01-01T01:12:24.652Z,3.1
2017-01-01T01:12:34.644Z,3.1
2017-01-01T01:12:44.641Z,3.1
2017-01-01T01:12:54.631Z,3.1
2017-01-01T01:13:04.761Z,3.1
2017-01-01T01:13:14.614Z,3.1
2017-01-01T01:13:24.610Z,3.1
2017-01-01T01:13:34.603Z,3.1
2017-01-01T01:13:44.596Z,3.1
2017-01-01T01:13:54.594Z,3.1
2017-01-01T01:14:04.582Z,3.1
2017-01-01T01:14:14.579Z,3.1
2017-01-01T01:14:24.571Z,3.1
2017-01-01T01:14:34.563Z,3.1
2017-01-01T01:14:44.557Z,3.1
2017-01-01T01:14:54.547Z,3.1
2017-01-01T01:15:04.541Z,3.1
2017-01-01T01:15:14.536Z,3.1
2017-01-01T01:15:24.525Z,3.1
2017-01-01T01:15:34.522Z,3.1
2017-01-01T01:15:44.524Z,3.1
2017-01-01T01:15:54.511Z,3
2017-01-01T01:16:04.504Z,3.1
2017-01-01T01:16:14.495Z,3
2017-01-01T01:16:24.489Z,3
2017-01-01T01:16:34.487Z,3
2017-01-01T01:16:44.479Z,3
2017-01-01T01:16:54.467Z,3
2017-01-01T01:17:04.884Z,3
2017-01-01T01:17:14.454Z,3
2017-01-01T01:17:24.447Z,3
2017-01-01T01:17:34.442Z,3
2017-01-01T01:17:44.439Z,3
2017-01-01T01:17:54.431Z,3
2017-01-01T01:18:04.423Z,3
2017-01-01T01:18:14.415Z,3
2017-01-01T01:18:24.409Z,3
2017-01-01T01:18:34.534Z,3
2017-01-01T01:18:44.397Z,3
2017-01-01T01:18:54.389Z,3
2017-01-01T01:19:04.380Z,3
2017-01-01T01:19:14.373Z,3
2017-01-01T01:19:24.366Z,3
2017-01-01T01:19:34.360Z,3.1
2017-01-01T01:19:44.354Z,3
2017-01-01T01:19:54.347Z,3
2017-01-01T01:20:04.342Z,3
2017-01-01T01:20:14.330Z,3
2017-01-01T01:20:24.325Z,3
2017-01-01T01:20:34.318Z,3
2017-01-01T01:20:44.312Z,3
2017-01-01T01:20:54.307Z,3
2017-01-01T01:21:04.299Z,3
2017-01-01T01:21:14.289Z,3
2017-01-01T01:21:24.283Z,3
2017-01-01T01:21:34.287Z,3
2017-01-01T01:21:44.273Z,3
2017-01-01T01:21:54.268Z,3
2017-01-01T01:22:04.255Z,3
2017-01-01T01:22:14.255Z,3
2017-01-01T01:22:24.687Z,3
2017-01-01T01:22:34.237Z,3
2017-01-01T01:22:44.232Z,3
2017-01-01T01:22:54.222Z,3
2017-01-01T01:23:04.216Z,3
2017-01-01T01:23:14.209Z,3
2017-01-01T01:23:24.204Z,3
2017-01-01T01:23:34.198Z,3
2017-01-01T01:23:44.191Z,3
2017-01-01T01:23:54.186Z,3
2017-01-01T01:24:04.177Z,3
2017-01-01T01:24:14.172Z,3
2017-01-01T01:24:24.159Z,3
2017-01-01T01:24:34.157Z,3
2017-01-01T01:24:44.174Z,3
2017-01-01T01:24:54.140Z,3
2017-01-01T01:25:04.135Z,3
2017-01-01T01:25:14.126Z,3
2017-01-01T01:25:24.151Z,3
2017-01-01T01:25:34.534Z,3
2017-01-01T01:25:44.109Z,3
2017-01-01T01:25:54.102Z,3
2017-01-01T01:26:04.100Z,3
2017-01-01T01:26:14.089Z,3
2017-01-01T01:26:24.243Z,3
2017-01-01T01:26:34.074Z,3
2017-01-01T01:26:44.069Z,3
2017-01-01T01:26:54.061Z,3
2017-01-01T01:27:04.472Z,3
2017-01-01T01:27:14.047Z,3
2017-01-01T01:27:24.039Z,3
2017-01-01T01:27:34.034Z,3
2017-01-01T01:27:44.028Z,3
2017-01-01T01:27:54.018Z,3
2017-01-01T01:28:04.016Z,3
2017-01-01T01:28:14.006Z,3
2017-01-01T01:28:24.001Z,3
2017-01-01T01:28:33.994Z,3
2017-01-01T01:28:44.010Z,3
2017-01-01T01:28:53.979Z,3
2017-01-01T01:29:03.972Z,3
2017-01-01T01:29:13.968Z,3
2017-01-01T01:29:23.958Z,3
2017-01-01T01:29:33.953Z,3
2017-01-01T01:29:43.950Z,3
2017-01-01T01:29:53.938Z,3
2017-01-01T01:30:03.931Z,3
2017-01-01T01:30:13.925Z,2.9
2017-01-01T01:30:23.919Z,3
2017-01-01T01:30:33.911Z,2.9
2017-01-01T01:30:43.905Z,3
2017-01-01T01:30:53.898Z,3
2017-01-01T01:31:03.893Z,3
2017-01-01T01:31:13.885Z,3
2017-01-01T01:31:23.874Z,3
2017-01-01T01:31:33.869Z,3
2017-01-01T01:31:43.868Z,3
2017-01-01T01:31:53.861Z,3
2017-01-01T01:32:03.855Z,3
2017-01-01T01:32:13.844Z,2.9
2017-01-01T01:32:23.837Z,3
2017-01-01T01:32:33.832Z,2.9
2017-01-01T01:32:43.825Z,3
2017-01-01T01:32:53.813Z,3
2017-01-01T01:33:03.811Z,3
2017-01-01T01:33:13.806Z,2.9
2017-01-01T01:33:23.795Z,2.9
2017-01-01T01:33:33.791Z,2.9
2017-01-01T01:33:43.787Z,3
2017-01-01T01:33:53.777Z,3
2017-01-01T01:34:03.772Z,3
2017-01-01T01:34:13.765Z,3
2017-01-01T01:34:23.753Z,2.9
2017-01-01T01:34:33.749Z,3
2017-01-01T01:34:43.741Z,3
2017-01-01T01:34:53.738Z,3
2017-01-01T01:35:03.728Z,3
2017-01-01T01:35:13.717Z,3
2017-01-01T01:35:23.713Z,2.9
2017-01-01T01:35:33.708Z,3
2017-01-01T01:35:43.703Z,3
2017-01-01T01:35:53.697Z,2.9
2017-01-01T01:36:03.690Z,3
2017-01-01T01:36:13.678Z,2.9
2017-01-01T01:36:23.675Z,2.9
2017-01-01T01:36:33.666Z,2.9
2017-01-01T01:36:43.662Z,2.9
2017-01-01T01:36:53.656Z,2.9
2017-01-01T01:37:03.648Z,2.9
2017-01-01T01:37:13.642Z,2.9
2017-01-01T01:37:23.629Z,2.9
2017-01-01T01:37:33.624Z,2.9
2017-01-01T01:37:43.619Z,2.9
2017-01-01T01:37:53.618Z,2.9
2017-01-01T01:38:03.608Z,2.9
2017-01-01T01:38:13.600Z,2.9
2017-01-01T01:38:23.590Z,2.9
2017-01-01T01:38:33.589Z,2.9
2017-01-01T01:38:43.582Z,2.9
2017-01-01T01:38:53.581Z,2.9
2017-01-01T01:39:03.565Z,2.9
2017-01-01T01:39:13.562Z,2.9
2017-01-01T01:39:23.557Z,2.9
2017-01-01T01:39:33.544Z,2.9
2017-01-01T01:39:43.538Z,2.9
2017-01-01T01:39:53.561Z,2.9
2017-01-01T01:40:03.528Z,2.9
2017-01-01T01:40:13.516Z,2.9
2017-01-01T01:40:23.515Z,2.9
2017-01-01T01:40:33.504Z,2.9
2017-01-01T01:40:43.498Z,2.9
2017-01-01T01:40:53.489Z,2.9
2017-01-01T01:41:03.482Z,2.9
2017-01-01T01:41:13.482Z,2.9
2017-01-01T01:41:23.466Z,2.9
2017-01-01T01:41:33.464Z,2.9
2017-01-01T01:41:43.459Z,2.9
2017-01-01T01:41:53.452Z,2.9
2017-01-01T01:42:03.445Z,2.9
2017-01-01T01:42:13.433Z,2.9
2017-01-01T01:42:23.429Z,2.9
2017-01-01T01:42:33.424Z,2.9
2017-01-01T01:42:43.417Z,2.9
2017-01-01T01:42:53.409Z,2.9
2017-01-01T01:43:03.405Z,2.9
2017-01-01T01:43:13.396Z,2.9
2017-01-01T01:43:23.416Z,2.9
2017-01-01T01:43:33.515Z,2.8
2017-01-01T01:43:43.371Z,2.9
2017-01-01T01:43:53.371Z,2.8
2017-01-01T01:44:03.364Z,2.8
2017-01-01T01:44:13.359Z,2.8
2017-01-01T01:44:23.345Z,2.8
2017-01-01T01:44:33.340Z,2.8
2017-01-01T01:44:43.333Z,2.8
2017-01-01T01:44:53.331Z,2.8
2017-01-01T01:45:03.319Z,2.8
2017-01-01T01:45:13.315Z,2.8
2017-01-01T01:45:23.312Z,2.8
2017-01-01T01:45:33.299Z,2.8
2017-01-01T01:45:43.297Z,2.8
2017-01-01T01:45:53.285Z,2.8
2017-01-01T01:46:03.286Z,2.8
2017-01-01T01:46:13.407Z,2.8
2017-01-01T01:46:23.264Z,2.8
2017-01-01T01:46:33.262Z,2.8
2017-01-01T01:46:43.254Z,2.8
2017-01-01T01:46:53.248Z,2.8
2017-01-01T01:47:03.239Z,2.8
2017-01-01T01:47:13.232Z,2.8
2017-01-01T01:47:23.226Z,2.8
2017-01-01T01:47:33.221Z,2.8
2017-01-01T01:47:43.213Z,2.8
2017-01-01T01:47:53.210Z,2.8
2017-01-01T01:48:03.197Z,2.8
2017-01-01T01:48:13.191Z,2.8
2017-01-01T01:48:23.185Z,2.8
2017-01-01T01:48:33.176Z,2.8
2017-01-01T01:48:43.170Z,2.8
2017-01-01T01:48:53.165Z,2.8
2017-01-01T01:49:03.159Z,2.8
2017-01-01T01:49:13.155Z,2.8
2017-01-01T01:49:23.142Z,2.8
2017-01-01T01:49:33.137Z,2.8
2017-01-01T01:49:43.127Z,2.8
2017-01-01T01:49:53.128Z,2.8
2017-01-01T01:50:03.119Z,2.8
2017-01-01T01:50:13.111Z,2.8
2017-01-01T01:50:23.101Z,2.8
2017-01-01T01:50:33.100Z,2.8
2017-01-01T01:50:43.091Z,2.8
2017-01-01T01:50:53.084Z,2.8
2017-01-01T01:51:03.517Z,2.8
2017-01-01T01:51:13.073Z,2.8
2017-01-01T01:51:23.195Z,2.8
2017-01-01T01:51:33.053Z,2.8
2017-01-01T01:51:43.047Z,2.8
2017-01-01T01:51:53.046Z,2.8
2017-01-01T01:52:03.034Z,2.8
2017-01-01T01:52:13.029Z,2.8
2017-01-01T01:52:23.024Z,2.8
2017-01-01T01:52:33.012Z,2.8
2017-01-01T01:52:43.010Z,2.8
2017-01-01T01:52:53.002Z,2.8
2017-01-01T01:53:02.996Z,2.8
2017-01-01T01:53:12.990Z,2.8
2017-01-01T01:53:22.982Z,2.8
2017-01-01T01:53:32.974Z,2.8
2017-01-01T01:53:42.968Z,2.8
2017-01-01T01:53:52.958Z,2.8
2017-01-01T01:54:02.957Z,2.8
2017-01-01T01:54:12.943Z,2.8
2017-01-01T01:54:22.938Z,2.8
2017-01-01T01:54:32.935Z,2.8
2017-01-01T01:54:43.380Z,2.8
2017-01-01T01:54:52.922Z,2.8
2017-01-01T01:55:02.918Z,2.8
2017-01-01T01:55:12.908Z,2.8
2017-01-01T01:55:22.900Z,2.8
2017-01-01T01:55:32.890Z,2.8
2017-01-01T01:55:42.887Z,2.8
2017-01-01T01:55:52.879Z,2.8
2017-01-01T01:56:02.876Z,2.8
2017-01-01T01:56:12.865Z,2.8
2017-01-01T01:56:22.861Z,2.8
2017-01-01T01:56:32.985Z,2.8
2017-01-01T01:56:42.845Z,2.8
2017-01-01T01:56:52.844Z,2.8
2017-01-01T01:57:02.831Z,2.8
2017-01-01T01:57:12.826Z,2.8
2017-01-01T01:57:22.820Z,2.8
2017-01-01T01:57:32.808Z,2.8
2017-01-01T01:57:42.808Z,2.8
2017-01-01T01:57:52.930Z,2.8
2017-01-01T01:58:02.791Z,2.8
2017-01-01T01:58:12.786Z,2.8
2017-01-01T01:58:22.775Z,2.8
2017-01-01T01:58:32.770Z,2.8
2017-01-01T01:58:42.763Z,2.8
2017-01-01T01:58:52.779Z,2.8
2017-01-01T01:59:02.754Z,2.8
2017-01-01T01:59:12.751Z,2.8
2017-01-01T01:59:22.739Z,2.8
2017-01-01T01:59:32.752Z,2.8
2017-01-01T01:59:42.730Z,2.8
2017-01-01T01:59:52.719Z,2.8
2017-01-01T02:00:02.710Z,2.8
2017-01-01T02:00:12.703Z,2.8
2017-01-01T02:00:22.702Z,2.8
2017-01-01T02:00:32.686Z,2.8
2017-01-01T02:00:42.681Z,2.8
2017-01-01T02:00:52.678Z,2.8
2017-01-01T02:01:02.669Z,2.8
2017-01-01T02:01:12.661Z,2.8
2017-01-01T02:01:22.659Z,2.8
2017-01-01T02:01:32.655Z,2.8
2017-01-01T02:01:42.639Z,2.8
2017-01-01T02:01:52.634Z,2.8
2017-01-01T02:02:02.627Z,2.8
2017-01-01T02:02:12.626Z,2.7
2017-01-01T02:02:22.611Z,2.7
2017-01-01T02:02:32.767Z,2.7
2017-01-01T02:02:42.601Z,2.7
2017-01-01T02:02:52.592Z,2.7
2017-01-01T02:03:02.590Z,2.7
2017-01-01T02:03:12.581Z,2.7
2017-01-01T02:03:22.598Z,2.7
2017-01-01T02:03:32.567Z,2.7
2017-01-01T02:03:42.562Z,2.7
2017-01-01T02:03:52.556Z,2.7
2017-01-01T02:04:02.549Z,2.7
2017-01-01T02:04:12.566Z,2.7
2017-01-01T02:04:22.533Z,2.7
2017-01-01T02:04:32.526Z,2.7
2017-01-01T02:04:42.519Z,2.7
2017-01-01T02:04:52.516Z,2.7
2017-01-01T02:05:02.507Z,2.7
2017-01-01T02:05:12.628Z,2.7
2017-01-01T02:05:22.495Z,2.7
2017-01-01T02:05:32.514Z,2.7
2017-01-01T02:05:42.478Z,2.7
2017-01-01T02:05:52.473Z,2.7
2017-01-01T02:06:02.463Z,2.7
2017-01-01T02:06:12.456Z,2.7
2017-01-01T02:06:22.453Z,2.7
2017-01-01T02:06:32.447Z,2.7
2017-01-01T02:06:42.437Z,2.7
2017-01-01T02:06:52.430Z,2.7
2017-01-01T02:07:02.425Z,2.6
2017-01-01T02:07:12.424Z,2.6
2017-01-01T02:07:22.411Z,2.6
2017-01-01T02:07:32.404Z,2.6
2017-01-01T02:07:42.412Z,2.6
2017-01-01T02:07:52.393Z,2.6
2017-01-01T02:08:02.384Z,2.6
2017-01-01T02:08:12.377Z,2.6
2017-01-01T02:08:22.367Z,2.6
2017-01-01T02:08:32.364Z,2.6
2017-01-01T02:08:42.356Z,2.6
2017-01-01T02:08:52.350Z,2.6
2017-01-01T02:09:02.343Z,2.6
2017-01-01T02:09:12.334Z,2.6
2017-01-01T02:09:22.327Z,2.6
2017-01-01T02:09:32.321Z,2.6
2017-01-01T02:09:42.311Z,2.6
2017-01-01T02:09:52.329Z,2.6
2017-01-01T02:10:02.300Z,2.6
2017-01-01T02:10:12.291Z,2.5
2017-01-01T02:10:22.288Z,2.5
2017-01-01T02:10:32.279Z,2.5
2017-01-01T02:10:42.693Z,2.6
2017-01-01T02:10:52.267Z,2.6
2017-01-01T02:11:02.260Z,2.6
2017-01-01T02:11:12.255Z,2.6
2017-01-01T02:11:22.247Z,2.6
2017-01-01T02:11:32.241Z,2.6
2017-01-01T02:11:42.231Z,2.6
2017-01-01T02:11:52.232Z,2.6
2017-01-01T02:12:02.222Z,2.6
2017-01-01T02:12:12.214Z,2.6
2017-01-01T02:12:22.207Z,2.6
2017-01-01T02:12:32.197Z,2.6
2017-01-01T02:12:42.195Z,2.6
2017-01-01T02:12:52.188Z,2.6
2017-01-01T02:13:02.179Z,2.6
2017-01-01T02:13:12.172Z,2.6
2017-01-01T02:13:22.166Z,2.6
2017-01-01T02:13:32.158Z,2.6
2017-01-01T02:13:42.283Z,2.6
2017-01-01T02:13:52.148Z,2.6
2017-01-01T02:14:02.139Z,2.5
2017-01-01T02:14:12.132Z,2.5
2017-01-01T02:14:22.126Z,2.5
2017-01-01T02:14:32.114Z,2.5
2017-01-01T02:14:42.111Z,2.5
2017-01-01T02:14:52.106Z,2.5
2017-01-01T02:15:02.099Z,2.4
2017-01-01T02:15:12.091Z,2.4
2017-01-01T02:15:22.086Z,2.4
2017-01-01T02:15:32.076Z,2.5
2017-01-01T02:15:42.070Z,2.5
2017-01-01T02:15:52.061Z,2.5
2017-01-01T02:16:02.058Z,2.5
2017-01-01T02:16:12.051Z,2.5
2017-01-01T02:16:22.041Z,2.4
2017-01-01T02:16:32.036Z,2.4
2017-01-01T02:16:42.044Z,2.5
2017-01-01T02:16:52.024Z,2.5
2017-01-01T02:17:02.014Z,2.5
2017-01-01T02:17:12.011Z,2.5
2017-01-01T02:17:22.005Z,2.4
2017-01-01T02:17:32.155Z,2.4
2017-01-01T02:17:41.988Z,2.4
2017-01-01T02:17:51.981Z,2.4
2017-01-01T02:18:01.978Z,2.4
2017-01-01T02:18:11.965Z,2.4
2017-01-01T02:18:21.962Z,2.4
2017-01-01T02:18:31.952Z,2.4
2017-01-01T02:18:41.949Z,2.4
2017-01-01T02:18:51.942Z,2.4